CheckWX is a tool to help pilots better visualize weather data.  It is not intended as a substitute for an official pre-flight weather briefing.

12:02:29 UTC

KCSQ METAR
Creston Municipal Airport
Creston, Iowa, USA
Current

7 mins ago

KCSQ 251155Z AUTO 02012KT 10SM OVC070 04/04 A3021 RMK AO2
Observed
Mar-25 @ 11:55 UTC
Wind
  • 020° at 12 KTS
Visibility
10 SM
Flight Rules
VFR
Cloud Levels
  • Overcast at 7,000' AGL
Temperature
C / 39°F
Dewpoint
C / 39°F
Humidity
100%
Altimeter
30.21" Hg
Pressure
1023.02 hPa
Previous

27 mins ago

KCSQ 251135Z AUTO 02011KT 10SM OVC065 04/04 A3021 RMK AO2
Observed
Mar-25 @ 11:35 UTC
Wind
  • 020° at 11 KTS
Visibility
10 SM
Flight Rules
VFR
Cloud Levels
  • Overcast at 6,500' AGL
Temperature
C / 39°F
Dewpoint
C / 39°F
Humidity
100%
Altimeter
30.21" Hg
Pressure
1023.02 hPa
Previous

47 mins ago

KCSQ 251115Z AUTO 02012KT 10SM OVC065 05/05 A3020 RMK AO2
Observed
Mar-25 @ 11:15 UTC
Wind
  • 020° at 12 KTS
Visibility
10 SM
Flight Rules
VFR
Cloud Levels
  • Overcast at 6,500' AGL
Temperature
C / 41°F
Dewpoint
C / 41°F
Humidity
100%
Altimeter
30.2" Hg
Pressure
1022.72 hPa